SBDN/PPB METAR and TAF weather

Enter ICAO airport designator
Station Type Date Time Source
SBDN METAR 2022/01/29 12:00 UTC NOAA

SBDN 291200Z 03006KT 9999 BKN006 BKN020 24/22 Q1009


Station Type Date Time Source
SBDN Decoded METAR 2022/01/29 12:00 UTC NOAA

Presidente Prudente, Brazil (SBDN) 22-07S 051-23W
Jan 29, 2022 - 07:00 AM EST / 2022.01.29 1200 UTC
Wind: from the NNE (030 degrees) at 7 MPH (6 KT):0
Visibility: greater than 7 mile(s):0
Sky conditions: mostly cloudy
Temperature: 75 F (24 C)
Dew Point: 71 F (22 C)
Relative Humidity: 88%
Pressure (altimeter): 29.80 in. Hg (1009 hPa)
ob: SBDN 291200Z 03006KT 9999 BKN006 BKN020 24/22 Q1009
cycle: 12

Station Type Date Time Source
SBDN TAF 2022/01/29 06:27 UTC NOAA

TAF SBDN 290400Z 2906/2918 15007KT 9999 SCT020 TN20/2909Z TX26/2917Z
TEMPO 2906/2912 3500 BR SCT003 BKN010
BECMG 2912/2914 33010KT SCT030 FEW040TCU
TEMPO 2916/2918 33013G23KT 3000 TSRA SCT030 FEW035CB
RMK PHH

Example: see airport list